Time;durP1;ratioP1;P1;durP2;ratioP2;P2;SDS_P1;SDS_P2;PMS_P1;PMS_P2;Temp;Humidity;BMP_temperature;BMP_pressure;BME280_temperature;BME280_humidity;BME280_pressure;Samples;Min_cycle;Max_cycle;Signal;HPM_P1;HPM_P2
2023/02/17 00:01:34;;;;;;;1999.90;999.90;;;;;;;2.49;100.00;98998.56;5006416;28;20026;-81
2023/02/17 00:04:00;;;;;;;1999.90;999.90;;;;;;;2.46;100.00;99017.88;5008102;28;20010;-85
2023/02/17 00:06:29;;;;;;;1999.90;999.90;;;;;;;2.48;100.00;99016.63;5024233;28;20026;-83
2023/02/17 00:08:54;;;;;;;1999.90;999.90;;;;;;;2.34;100.00;99001.56;5024430;28;20054;-87
2023/02/17 00:11:20;;;;;;;1999.90;999.90;;;;;;;2.52;100.00;99007.06;5007280;28;20037;-82
2023/02/17 00:13:46;;;;;;;1999.90;999.90;;;;;;;2.43;100.00;99002.13;5027014;28;20132;-88
2023/02/17 00:16:16;;;;;;;1999.90;999.90;;;;;;;2.38;100.00;99008.16;5025147;28;20026;-85
2023/02/17 00:18:42;;;;;;;1999.90;999.90;;;;;;;2.34;100.00;98993.47;5023537;28;20491;-85
2023/02/17 00:21:14;;;;;;;1999.90;999.90;;;;;;;2.31;100.00;99006.56;5023506;28;20090;-85
2023/02/17 00:23:40;;;;;;;1999.90;999.90;;;;;;;2.29;100.00;99011.38;5024147;28;20163;-87
2023/02/17 00:26:06;;;;;;;1999.90;999.90;;;;;;;2.27;100.00;98999.94;5006279;28;20034;-86
2023/02/17 00:28:32;;;;;;;1999.90;999.90;;;;;;;2.22;100.00;99007.88;5023455;28;20030;-85
2023/02/17 00:30:57;;;;;;;1999.90;999.90;;;;;;;2.17;100.00;98995.00;5023570;28;20018;-85
2023/02/17 00:33:22;;;;;;;1999.90;999.90;;;;;;;2.16;100.00;98994.16;5024505;28;20026;-85
2023/02/17 00:35:48;;;;;;;1999.90;999.90;;;;;;;2.24;100.00;99005.75;5025368;28;20674;-84
2023/02/17 00:38:13;;;;;;;1999.90;999.90;;;;;;;2.26;100.00;99009.06;5025338;28;20046;-86
2023/02/17 00:40:40;;;;;;;1999.90;999.90;;;;;;;2.25;100.00;99002.03;5021154;28;20054;-86
2023/02/17 00:43:05;;;;;;;1999.90;999.90;;;;;;;2.43;100.00;99011.06;5020828;28;20497;-84
2023/02/17 00:45:31;;;;;;;1999.90;999.90;;;;;;;2.37;100.00;99014.63;5017150;28;20037;-83
2023/02/17 00:47:56;;;;;;;1999.90;999.90;;;;;;;2.33;100.00;99009.88;5015554;28;20072;-86
2023/02/17 00:50:22;;;;;;;1999.90;999.90;;;;;;;2.32;100.00;99002.84;5014462;28;20030;-84
2023/02/17 00:52:47;;;;;;;1999.90;999.90;;;;;;;2.31;100.00;99001.16;5012896;28;20034;-85
2023/02/17 00:55:12;;;;;;;1999.90;999.90;;;;;;;2.24;100.00;98997.66;5013428;28;20032;-81
2023/02/17 00:57:37;;;;;;;1999.90;999.90;;;;;;;2.31;100.00;99009.25;5013057;28;20064;-85
2023/02/17 01:00:04;;;;;;;1999.90;999.90;;;;;;;2.31;100.00;99001.16;5013644;28;20052;-81
2023/02/17 01:02:29;;;;;;;1999.90;999.90;;;;;;;2.28;100.00;99001.59;5013072;28;20041;-82
2023/02/17 01:04:55;;;;;;;1999.90;999.90;;;;;;;2.27;100.00;98994.53;5013024;28;20022;-82
2023/02/17 01:07:20;;;;;;;1999.90;999.90;;;;;;;2.24;100.00;99001.19;5013337;28;20025;-85
2023/02/17 01:09:45;;;;;;;1999.90;999.90;;;;;;;2.18;100.00;99007.47;5012686;28;20391;-82
2023/02/17 01:12:12;;;;;;;1999.90;999.90;;;;;;;2.17;100.00;99003.09;5012768;28;20033;-82
2023/02/17 01:14:37;;;;;;;1999.90;999.90;;;;;;;2.16;100.00;99001.47;5013416;28;20105;-84
2023/02/17 01:17:02;;;;;;;1999.90;999.90;;;;;;;2.21;100.00;99006.19;5012940;28;20030;-83
2023/02/17 01:19:28;;;;;;;1999.90;999.90;;;;;;;2.08;100.00;98996.31;5013328;28;20101;-84
2023/02/17 01:21:53;;;;;;;1999.90;999.90;;;;;;;2.09;100.00;99003.34;5013381;28;20616;-83
2023/02/17 01:24:19;;;;;;;1999.90;999.90;;;;;;;2.06;100.00;98996.53;5013182;28;20082;-84
2023/02/17 01:26:44;;;;;;;1999.90;999.90;;;;;;;1.97;100.00;98992.41;4996216;28;20033;-85
2023/02/17 01:29:09;;;;;;;1999.90;999.90;;;;;;;1.63;100.00;98953.13;5014021;28;20032;-82
2023/02/17 01:31:35;;;;;;;1999.90;999.90;;;;;;;1.80;100.00;98976.94;5012531;28;20053;-81
2023/02/17 01:34:02;;;;;;;1999.90;999.90;;;;;;;1.87;100.00;98996.59;5006565;28;20033;-81
2023/02/17 01:36:28;;;;;;;1999.90;999.90;;;;;;;1.81;100.00;98990.22;4994039;28;20065;-79
2023/02/17 01:38:54;;;;;;;1999.90;999.90;;;;;;;1.84;100.00;99000.56;4994252;28;20038;-78
2023/02/17 01:41:22;;;;;;;1999.90;999.90;;;;;;;1.86;100.00;99003.03;5010774;28;20487;-78
2023/02/17 01:44:10;;;;;;;1999.90;999.90;;;;;;;1.96;100.00;99004.25;5011054;28;20105;-80
2023/02/17 01:46:38;;;;;;;1999.90;999.90;;;;;;;1.90;100.00;99010.50;5011224;28;20758;-80
2023/02/17 01:49:26;;;;;;;1999.90;999.90;;;;;;;1.82;100.00;99005.31;5011094;28;20010;-80
2023/02/17 01:52:00;;;;;;;1999.90;999.90;;;;;;;1.78;100.00;98974.47;4991466;28;20812;-79
2023/02/17 01:54:34;;;;;;;1999.90;999.90;;;;;;;1.50;100.00;98955.06;4992575;28;20034;-81
2023/02/17 01:57:01;;;;;;;1999.90;999.90;;;;;;;1.78;100.00;98998.72;4976957;28;20030;-83
2023/02/17 01:59:28;;;;;;;1999.90;999.90;;;;;;;1.73;100.00;99003.91;4993212;28;20440;-82
2023/02/17 02:01:57;;;;;;;1999.90;999.90;;;;;;;1.79;100.00;98997.66;4975678;28;20031;-85
2023/02/17 02:04:27;;;;;;;1999.90;999.90;;;;;;;1.74;100.00;98992.09;4999077;28;20109;-83
2023/02/17 02:06:53;;;;;;;1999.90;999.90;;;;;;;1.78;100.00;98985.25;4996081;28;20117;-83
2023/02/17 02:09:29;;;;;;;1999.90;999.90;;;;;;;1.84;100.00;98987.09;4991769;28;20544;-84
2023/02/17 02:11:55;;;;;;;1999.90;999.90;;;;;;;1.81;100.00;98979.44;4992043;28;20395;-83
2023/02/17 02:14:21;;;;;;;1999.90;999.90;;;;;;;1.62;100.00;98969.53;4989981;28;20037;-80
2023/02/17 02:16:55;;;;;;;1999.90;999.90;;;;;;;1.76;100.00;98992.69;4996243;28;20023;-82
2023/02/17 02:19:42;;;;;;;1999.90;999.90;;;;;;;1.70;100.00;98990.84;5018412;28;20029;-83
2023/02/17 02:22:23;;;;;;;1999.90;999.90;;;;;;;1.70;100.00;98979.25;5014566;28;20120;-85
2023/02/17 02:25:07;;;;;;;1999.90;999.90;;;;;;;1.69;100.00;98973.03;5017528;28;20033;-80
2023/02/17 02:27:51;;;;;;;1999.90;999.90;;;;;;;1.58;100.00;98973.69;5001226;28;20030;-82
2023/02/17 02:30:17;;;;;;;1999.90;999.90;;;;;;;1.54;100.00;98967.06;5002967;28;20037;-84
2023/02/17 02:32:52;;;;;;;1999.90;999.90;;;;;;;1.48;100.00;98959.81;4983804;28;20026;-85
2023/02/17 02:35:18;;;;;;;1999.90;999.90;;;;;;;1.43;100.00;98975.81;5002011;28;20026;-83
2023/02/17 02:37:52;;;;;;;1999.90;999.90;;;;;;;1.40;100.00;98979.78;5000553;28;20428;-81
2023/02/17 02:40:21;;;;;;;1999.90;999.90;;;;;;;1.30;100.00;98956.97;4982059;28;20049;-84
2023/02/17 02:42:47;;;;;;;1999.90;999.90;;;;;;;1.25;100.00;98972.97;4999881;28;20040;-86
2023/02/17 02:45:16;;;;;;;1999.90;999.90;;;;;;;1.35;100.00;98967.94;5000717;28;20411;-83
2023/02/17 02:47:50;;;;;;;1999.90;999.90;;;;;;;1.50;100.00;98973.94;4999985;28;20023;-84
2023/02/17 02:50:27;;;;;;;1999.90;999.90;;;;;;;1.47;100.00;98963.59;4999009;28;20484;-84
2023/02/17 02:53:17;;;;;;;1999.90;999.90;;;;;;;1.33;100.00;98961.94;4997692;28;20037;-81
2023/02/17 02:55:58;;;;;;;1999.90;999.90;;;;;;;1.43;100.00;98965.03;4980282;28;20475;-85
2023/02/17 02:58:37;;;;;;;1999.90;999.90;;;;;;;1.38;100.00;98957.56;4998856;28;20065;-83
2023/02/17 03:01:34;;;;;;;1999.90;999.90;;;;;;;1.34;100.00;98967.16;4998875;28;20035;-83
2023/02/17 03:04:14;;;;;;;1999.90;999.90;;;;;;;1.34;100.00;98971.69;4985155;28;20019;-84
2023/02/17 03:06:48;;;;;;;1999.90;999.90;;;;;;;1.25;100.00;98959.50;4982256;28;20151;-84
2023/02/17 03:09:20;;;;;;;1999.90;999.90;;;;;;;1.36;100.00;98967.75;4999969;28;20022;-84
2023/02/17 03:11:46;;;;;;;1999.90;999.90;;;;;;;1.35;100.00;98962.56;4980867;28;20027;-81
2023/02/17 03:14:15;;;;;;;1999.90;999.90;;;;;;;1.26;100.00;98956.56;4980527;28;20570;-83
2023/02/17 03:16:41;;;;;;;1999.90;999.90;;;;;;;1.40;100.00;98966.28;4999922;28;20026;-83
2023/02/17 03:19:08;;;;;;;1999.90;999.90;;;;;;;1.43;100.00;98967.72;4999908;28;20026;-83
2023/02/17 03:21:42;;;;;;;1999.90;999.90;;;;;;;1.49;100.00;98977.66;4984332;28;20031;-84
2023/02/17 03:24:08;;;;;;;1999.90;999.90;;;;;;;1.52;100.00;98974.53;4984640;28;20026;-83
2023/02/17 03:26:33;;;;;;;1999.90;999.90;;;;;;;1.43;100.00;98976.66;4983812;28;20360;-85
2023/02/17 03:28:59;;;;;;;1999.90;999.90;;;;;;;1.58;100.00;98992.56;4992286;28;20033;-82
2023/02/17 03:31:25;;;;;;;1999.90;999.90;;;;;;;1.55;100.00;98987.59;5000995;28;20026;-82
2023/02/17 03:33:50;;;;;;;1999.90;999.90;;;;;;;1.50;100.00;98979.34;5001049;28;20061;-84
2023/02/17 03:36:16;;;;;;;1999.90;999.90;;;;;;;1.51;100.00;98983.66;4999818;28;20088;-84
2023/02/17 03:38:41;;;;;;;1999.90;999.90;;;;;;;1.42;100.00;98974.97;5019878;28;20033;-85
2023/02/17 03:41:07;;;;;;;1999.90;999.90;;;;;;;1.54;100.00;98991.31;4999959;28;20128;-86
2023/02/17 03:43:32;;;;;;;1999.90;999.90;;;;;;;1.44;100.00;98997.16;4998045;28;20029;-84
2023/02/17 03:45:57;;;;;;;1999.90;999.90;;;;;;;1.38;100.00;98979.13;5018197;28;20069;-84
2023/02/17 03:48:23;;;;;;;1999.90;999.90;;;;;;;1.40;100.00;98981.63;5000601;28;20498;-82
2023/02/17 03:50:49;;;;;;;1999.90;999.90;;;;;;;1.51;100.00;98999.84;5020414;28;20068;-84
2023/02/17 03:53:14;;;;;;;1999.90;999.90;;;;;;;1.53;100.00;98995.06;5019786;28;20065;-86
2023/02/17 03:55:40;;;;;;;1999.90;999.90;;;;;;;1.52;100.00;98985.31;5019720;28;20072;-83
2023/02/17 03:58:05;;;;;;;1999.90;999.90;;;;;;;1.65;100.00;98989.84;5017874;28;20053;-84
2023/02/17 04:00:30;;;;;;;1999.90;999.90;;;;;;;1.68;100.00;98989.41;5017899;28;20034;-85
2023/02/17 04:02:56;;;;;;;1999.90;999.90;;;;;;;1.66;100.00;98997.72;5018129;28;20030;-86
2023/02/17 04:05:22;;;;;;;1999.90;999.90;;;;;;;1.68;100.00;99001.03;5020779;28;20089;-82
2023/02/17 04:07:48;;;;;;;1999.90;999.90;;;;;;;1.60;100.00;98985.09;5004176;28;20026;-82
2023/02/17 04:10:14;;;;;;;1999.90;999.90;;;;;;;1.68;100.00;98990.25;5003704;28;20084;-81
2023/02/17 04:12:39;;;;;;;1999.90;999.90;;;;;;;1.65;100.00;98982.59;5019570;28;20030;-86
2023/02/17 04:15:05;;;;;;;1999.90;999.90;;;;;;;1.80;100.00;99004.72;5019514;28;20036;-84
2023/02/17 04:17:31;;;;;;;1999.90;999.90;;;;;;;1.76;100.00;98975.69;5017671;28;20041;-86
2023/02/17 04:19:56;;;;;;;1999.90;999.90;;;;;;;1.67;100.00;98982.38;4999887;28;20034;-85
2023/02/17 04:22:22;;;;;;;1999.90;999.90;;;;;;;1.72;100.00;98983.41;4999733;28;20033;-83
2023/02/17 04:24:47;;;;;;;1999.90;999.90;;;;;;;1.63;100.00;98985.50;5017396;28;20030;-82
2023/02/17 04:27:13;;;;;;;1999.90;999.90;;;;;;;1.57;100.00;98966.63;5005368;28;20037;-81
2023/02/17 04:29:38;;;;;;;1999.90;999.90;;;;;;;1.51;100.00;98967.50;5003264;28;20037;-83
2023/02/17 04:32:04;;;;;;;1999.90;999.90;;;;;;;1.48;100.00;98957.97;5000385;28;20034;-86
2023/02/17 04:34:29;;;;;;;1999.90;999.90;;;;;;;1.63;100.00;98987.34;4981706;28;20633;-83
2023/02/17 04:36:54;;;;;;;1999.90;999.90;;;;;;;1.62;100.00;98977.63;4996647;28;20172;-82
2023/02/17 04:39:20;;;;;;;1999.90;999.90;;;;;;;1.58;100.00;98974.53;4998566;28;20046;-83
2023/02/17 04:41:45;;;;;;;1999.90;999.90;;;;;;;1.49;100.00;98974.97;4999125;28;20033;-84
2023/02/17 04:44:11;;;;;;;1999.90;999.90;;;;;;;1.53;100.00;98978.91;4998581;28;20036;-84
2023/02/17 04:46:36;;;;;;;1999.90;999.90;;;;;;;1.48;100.00;98976.00;4998917;28;20031;-87
2023/02/17 04:49:01;;;;;;;1999.90;999.90;;;;;;;1.47;100.00;98977.84;4997609;28;20109;-82
2023/02/17 04:51:27;;;;;;;1999.90;999.90;;;;;;;1.48;100.00;98978.69;4985147;28;20097;-82
2023/02/17 04:53:53;;;;;;;1999.90;999.90;;;;;;;1.50;100.00;98988.22;4995162;28;20045;-82
2023/02/17 04:56:19;;;;;;;1999.90;999.90;;;;;;;1.55;100.00;98995.69;4981217;28;20102;-83
2023/02/17 04:58:44;;;;;;;1999.90;999.90;;;;;;;1.29;100.00;98979.56;5001773;28;20063;-83
2023/02/17 05:01:09;;;;;;;1999.90;999.90;;;;;;;1.50;100.00;99006.28;4998316;28;20057;-81
2023/02/17 05:03:35;;;;;;;1999.90;999.90;;;;;;;1.32;100.00;98995.31;4997687;28;20033;-85
2023/02/17 05:06:00;;;;;;;1999.90;999.90;;;;;;;1.27;100.00;98993.28;5013457;28;20364;-84
2023/02/17 05:08:32;;;;;;;;;;;;;;;1.41;100.00;99002.16;5111682;27;20377;-83
2023/02/17 05:10:57;;;;;;;;;;;;;;;1.32;100.00;98998.00;5112924;28;19967;-85
2023/02/17 05:13:22;;;;;;;1999.90;999.90;;;;;;;1.29;100.00;98996.56;5112972;28;19908;-82
2023/02/17 05:15:48;;;;;;;1999.90;999.90;;;;;;;1.16;100.00;98990.41;5112973;28;20031;-84
2023/02/17 05:18:13;;;;;;;1999.90;999.90;;;;;;;1.03;100.00;98983.97;5112865;28;20054;-85
2023/02/17 05:20:39;;;;;;;1999.90;999.90;;;;;;;1.16;100.00;98991.19;5107556;28;20507;-83
2023/02/17 05:23:05;;;;;;;1999.90;999.90;;;;;;;1.01;100.00;98977.97;5098617;28;20500;-84
2023/02/17 05:25:30;;;;;;;1999.90;999.90;;;;;;;0.96;100.00;98988.53;5089193;28;20114;-84
2023/02/17 05:27:55;;;;;;;1999.90;999.90;;;;;;;1.02;100.00;98985.03;5107046;28;20433;-82
2023/02/17 05:30:21;;;;;;;1999.90;999.90;;;;;;;1.05;100.00;99000.75;5108075;28;20035;-82
2023/02/17 05:32:46;;;;;;;1999.90;999.90;;;;;;;1.06;100.00;98996.22;5108475;28;20024;-82
2023/02/17 05:35:12;;;;;;;1999.90;999.90;;;;;;;0.99;100.00;98988.13;5110440;28;20027;-81
2023/02/17 05:37:37;;;;;;;1999.90;999.90;;;;;;;0.99;100.00;99000.75;5114003;28;20023;-76
2023/02/17 05:40:04;;;;;;;1999.90;999.90;;;;;;;0.97;100.00;98995.56;5113370;28;20024;-84
2023/02/17 05:42:29;;;;;;;1999.90;999.90;;;;;;;0.98;100.00;98999.94;5112144;28;20069;-82
2023/02/17 05:44:55;;;;;;;1999.90;999.90;;;;;;;0.97;100.00;98984.78;5118820;28;20020;-83
2023/02/17 05:47:21;;;;;;;1999.90;999.90;;;;;;;0.88;100.00;98977.13;5117793;27;20032;-86
2023/02/17 05:49:46;;;;;;;1999.90;999.90;;;;;;;0.85;100.00;98997.22;5117711;28;20028;-76
2023/02/17 05:52:12;;;;;;;1999.90;999.90;;;;;;;0.71;100.00;98957.91;5108799;28;20514;-76
2023/02/17 05:54:37;;;;;;;1999.90;999.90;;;;;;;1.07;100.00;98995.97;5110687;28;20032;-77
2023/02/17 05:57:03;;;;;;;1999.90;999.90;;;;;;;0.96;100.00;98991.25;5112606;28;20157;-77
2023/02/17 05:59:28;;;;;;;1999.90;999.90;;;;;;;0.85;100.00;98972.16;5109746;28;20537;-75
2023/02/17 06:01:53;;;;;;;1999.90;999.90;;;;;;;0.89;100.00;98978.81;5090473;28;20039;-76
2023/02/17 06:04:19;;;;;;;1999.90;999.90;;;;;;;0.87;100.00;98965.56;5107610;28;20020;-77
2023/02/17 06:06:44;;;;;;;1999.90;999.90;;;;;;;0.94;100.00;98979.03;5095697;28;20039;-76
2023/02/17 06:09:09;;;;;;;1999.90;999.90;;;;;;;1.00;100.00;99002.44;5110914;28;20454;-75
2023/02/17 06:11:37;;;;;;;1999.90;999.90;;;;;;;0.97;100.00;99003.66;5121266;28;20043;-87
2023/02/17 06:14:02;;;;;;;1999.90;999.90;;;;;;;0.86;100.00;99006.97;5128942;28;20028;-85
2023/02/17 06:16:28;;;;;;;1999.90;999.90;;;;;;;0.80;100.00;98996.22;5119327;28;20119;-80
2023/02/17 06:18:54;;;;;;;1999.90;999.90;;;;;;;0.71;100.00;98992.91;5108778;28;20024;-83
2023/02/17 06:21:20;;;;;;;1999.90;999.90;;;;;;;0.72;100.00;99004.50;5102786;28;20043;-85
2023/02/17 06:23:46;;;;;;;1999.90;999.90;;;;;;;0.85;100.00;99010.69;5101118;28;20024;-82
2023/02/17 06:26:11;;;;;;;1999.90;999.90;;;;;;;0.96;100.00;99007.41;5100082;28;20051;-80
2023/02/17 06:28:36;;;;;;;1999.90;999.90;;;;;;;0.91;100.00;99007.16;5095786;28;20035;-82
2023/02/17 06:31:02;;;;;;;1999.90;999.90;;;;;;;0.87;100.00;99000.56;5099465;28;20032;-83
2023/02/17 06:33:27;;;;;;;1999.90;999.90;;;;;;;1.06;100.00;99013.19;5100296;28;20028;-81
2023/02/17 06:35:53;;;;;;;1999.90;999.90;;;;;;;1.17;100.00;99005.50;5097783;28;20504;-79
2023/02/17 06:38:18;;;;;;;1999.90;999.90;;;;;;;1.20;100.00;99007.78;5100205;28;20035;-87
2023/02/17 06:40:44;;;;;;;1999.90;999.90;;;;;;;1.39;100.00;99015.00;5102362;28;20051;-84
2023/02/17 06:43:09;;;;;;;1999.90;999.90;;;;;;;1.57;100.00;99028.63;5100764;28;20040;-84
2023/02/17 06:45:35;;;;;;;1999.90;999.90;;;;;;;1.66;100.00;99024.66;5102437;28;20170;-80
2023/02/17 06:48:00;;;;;;;1999.90;999.90;;;;;;;1.80;100.00;99023.59;5101763;28;20036;-88
2023/02/17 06:50:26;;;;;;;1999.90;999.90;;;;;;;1.82;100.00;99023.38;5102108;28;20093;-88
2023/02/17 06:52:51;;;;;;;1999.90;999.90;;;;;;;1.99;100.00;99020.00;5103877;28;20047;-86
2023/02/17 06:55:17;;;;;;;1999.90;999.90;;;;;;;2.03;100.00;99013.16;5106524;28;20024;-82
2023/02/17 06:57:42;;;;;;;1999.90;999.90;;;;;;;2.38;100.00;99042.44;5105118;28;20027;-83
2023/02/17 07:00:08;;;;;;;1999.90;999.90;;;;;;;2.52;100.00;99044.84;5099066;28;20036;-80
2023/02/17 07:02:36;;;;;;;1999.90;999.90;;;;;;;2.73;100.00;99032.88;5092579;28;20480;-79
2023/02/17 07:05:02;;;;;;;1999.90;999.90;;;;;;;3.11;100.00;99039.03;5095740;28;20058;-84
2023/02/17 07:07:27;;;;;;;1999.90;999.90;;;;;;;3.32;100.00;99037.78;5090456;28;20059;-85
2023/02/17 07:09:52;;;;;;;1999.90;999.90;;;;;;;3.39;100.00;99040.44;5108042;28;20489;-88
2023/02/17 07:12:18;;;;;;;1999.90;999.90;;;;;;;3.46;100.00;99023.09;5091306;28;20025;-81
2023/02/17 07:14:43;;;;;;;1999.90;999.90;;;;;;;3.77;100.00;99027.56;5084703;28;20020;-79
2023/02/17 07:17:09;;;;;;;1999.90;999.90;;;;;;;3.73;100.00;99029.03;5101057;28;20028;-89
2023/02/17 07:19:34;;;;;;;1999.90;999.90;;;;;;;4.13;100.00;99035.69;5100547;28;20040;-85
2023/02/17 07:21:59;;;;;;;1999.90;999.90;;;;;;;4.66;100.00;99046.63;5101381;28;20024;-85
2023/02/17 07:24:25;;;;;;;1999.90;999.90;;;;;;;4.98;100.00;99049.88;5100690;28;20059;-84
2023/02/17 07:26:52;;;;;;;1999.90;999.90;;;;;;;5.33;100.00;99053.47;5102760;28;20039;-88
2023/02/17 07:29:17;;;;;;;1999.90;999.90;;;;;;;5.98;100.00;99053.41;5101470;28;20028;-86
2023/02/17 07:31:43;;;;;;;1999.90;999.90;;;;;;;6.43;100.00;99065.19;5101821;28;20495;-86
2023/02/17 07:34:08;;;;;;;1999.90;999.90;;;;;;;6.65;100.00;99059.09;5105040;28;20027;-86
2023/02/17 07:36:34;;;;;;;1999.90;999.90;;;;;;;7.47;100.00;99060.28;5107120;28;20024;-86
2023/02/17 07:39:00;;;;;;;1999.90;999.90;;;;;;;7.70;100.00;99051.94;5106612;28;20024;-84
2023/02/17 07:41:29;;;;;;;1999.90;999.90;;;;;;;7.86;100.00;99059.22;5085703;28;20039;-91
2023/02/17 07:43:56;;;;;;;1999.90;999.90;;;;;;;8.19;100.00;99066.50;5101364;28;20020;-85
2023/02/17 07:46:21;;;;;;;1999.90;999.90;;;;;;;9.01;100.00;99066.41;5098001;28;20039;-87
2023/02/17 07:48:47;;;;;;;1999.90;999.90;;;;;;;9.41;95.81;99064.06;5097864;28;20383;-87
2023/02/17 07:51:19;;;;;;;1999.90;999.90;;;;;;;9.73;93.62;99068.66;5101389;28;20596;-84
2023/02/17 07:53:44;;;;;;;1999.90;999.90;;;;;;;10.54;88.29;99065.34;5100782;28;20088;-88
2023/02/17 07:56:12;;;;;;;1999.90;999.90;;;;;;;11.46;82.29;99078.16;5101417;28;20075;-88
2023/02/17 07:58:40;;;;;;;1999.90;999.90;;;;;;;11.61;78.39;99078.16;5102161;28;20030;-83
2023/02/17 08:01:10;;;;;;;1999.90;999.90;;;;;;;11.73;74.05;99089.69;5104174;28;20028;-87
2023/02/17 08:03:36;;;;;;;1999.90;999.90;;;;;;;11.28;74.41;99092.34;5097387;28;20020;-87
2023/02/17 08:06:02;;;;;;;1999.90;999.90;;;;;;;11.43;73.57;99083.34;5091402;28;20587;-79
2023/02/17 08:13:58;;;;;;;1999.90;999.90;;;;;;;12.14;70.10;99086.88;5107602;28;20075;-84
2023/02/17 08:16:25;;;;;;;1999.90;999.90;;;;;;;12.27;69.39;99069.84;5104824;28;20024;-87
2023/02/17 08:18:51;;;;;;;1999.90;999.90;;;;;;;11.93;71.21;99082.53;5103669;28;20028;-85
2023/02/17 08:21:16;;;;;;;1999.90;999.90;;;;;;;12.80;67.87;99073.75;5102944;28;20491;-87
2023/02/17 08:23:42;;;;;;;1999.90;999.90;;;;;;;13.09;66.20;99079.41;5104962;28;20031;-89
2023/02/17 08:26:07;;;;;;;1999.90;999.90;;;;;;;13.25;65.79;99073.50;5102888;28;20028;-89
2023/02/17 08:28:32;;;;;;;1999.90;999.90;;;;;;;13.81;64.81;99082.13;5102813;28;20039;-91
2023/02/17 08:30:58;;;;;;;1999.90;999.90;;;;;;;13.59;66.20;99079.06;5102348;28;20020;-91
2023/02/17 08:33:23;;;;;;;1999.90;999.90;;;;;;;14.53;62.51;99091.38;5102734;28;20027;-88
2023/02/17 08:35:49;;;;;;;1999.90;999.90;;;;;;;13.63;64.74;99074.59;5101019;28;20008;-86
2023/02/17 08:38:14;;;;;;;1999.90;999.90;;;;;;;14.12;63.17;99065.38;5099732;28;20483;-86
2023/02/17 08:40:39;;;;;;;1999.90;999.90;;;;;;;13.85;63.95;99068.63;5099241;28;20503;-90
2023/02/17 08:43:08;;;;;;;1999.90;999.90;;;;;;;14.80;60.10;99076.97;5104368;28;20027;-89
2023/02/17 08:45:35;;;;;;;1999.90;999.90;;;;;;;15.09;59.44;99079.63;5102668;28;20441;-84
2023/02/17 08:48:02;;;;;;;1999.90;999.90;;;;;;;13.94;62.76;99062.22;5099281;28;20028;-87
2023/02/17 08:50:28;;;;;;;1999.90;999.90;;;;;;;15.25;59.60;99078.31;5100574;28;20030;-87
2023/02/17 08:52:53;;;;;;;1999.90;999.90;;;;;;;15.44;57.87;99065.34;5102826;28;20051;-88
2023/02/17 08:55:21;;;;;;;1999.90;999.90;;;;;;;15.68;56.38;99074.34;5105420;28;20024;-85
2023/02/17 08:57:46;;;;;;;1999.90;999.90;;;;;;;15.90;55.49;99057.13;5085516;28;20020;-85
2023/02/17 09:00:12;;;;;;;1999.90;999.90;;;;;;;15.78;55.97;99076.13;5102002;28;20546;-83
2023/02/17 09:02:41;;;;;;;1999.90;999.90;;;;;;;16.38;52.73;99069.47;5102559;28;20024;-82
2023/02/17 09:05:06;;;;;;;1999.90;999.90;;;;;;;14.96;56.95;99073.75;5101169;28;20020;-85
2023/02/17 09:07:32;;;;;;;1999.90;999.90;;;;;;;15.59;55.73;99070.63;5099314;28;20051;-83
2023/02/17 09:09:57;;;;;;;1999.90;999.90;;;;;;;15.79;53.64;99045.44;5098580;28;20024;-83
2023/02/17 09:12:24;;;;;;;1999.90;999.90;;;;;;;16.36;52.42;99066.22;5104845;28;20020;-87
2023/02/17 09:14:49;;;;;;;1999.90;999.90;;;;;;;15.63;54.27;99068.09;5105402;28;20023;-86
2023/02/17 09:17:14;;;;;;;1999.90;999.90;;;;;;;15.59;54.07;99051.31;5105828;28;20028;-92
2023/02/17 09:19:40;;;;;;;1999.90;999.90;;;;;;;14.67;55.71;99059.25;5102975;28;20157;-86
2023/02/17 09:22:07;;;;;;;1999.90;999.90;;;;;;;14.74;56.91;99051.44;5102873;28;20039;-88
2023/02/17 09:24:33;;;;;;;1999.90;999.90;;;;;;;15.59;54.75;99051.31;5100862;28;20111;-84
2023/02/17 09:27:00;;;;;;;1999.90;999.90;;;;;;;14.34;56.73;99046.44;5100570;28;20036;-85
2023/02/17 09:29:26;;;;;;;1999.90;999.90;;;;;;;14.54;57.79;99046.19;5099433;28;20031;-84
2023/02/17 09:31:51;;;;;;;1999.90;999.90;;;;;;;15.82;53.55;99053.13;5103278;28;20028;-88
2023/02/17 09:34:16;;;;;;;1999.90;999.90;;;;;;;16.58;51.49;99046.19;5101532;28;20024;-89
2023/02/17 09:36:42;;;;;;;1999.90;999.90;;;;;;;17.14;50.50;99057.69;5101522;28;20355;-86
2023/02/17 09:39:08;;;;;;;1999.90;999.90;;;;;;;17.31;48.66;99050.66;5104651;28;20030;-87
2023/02/17 09:41:39;;;;;;;1999.90;999.90;;;;;;;16.94;49.44;99055.38;5106759;28;20024;-87
2023/02/17 09:44:13;;;;;;;1999.90;999.90;;;;;;;17.42;48.82;99057.59;5106128;28;20059;-84
2023/02/17 09:46:47;;;;;;;1999.90;999.90;;;;;;;17.52;47.40;99055.41;5109849;28;20036;-83
2023/02/17 09:49:19;;;;;;;1999.90;999.90;;;;;;;17.18;47.89;99054.28;5108941;28;20019;-84
2023/02/17 09:52:32;;;;;;;1999.90;999.90;;;;;;;16.88;48.97;99056.63;5104628;28;20122;-88
2023/02/17 09:55:06;;;;;;;1999.90;999.90;;;;;;;17.08;48.43;99058.09;5081841;28;20043;-87
2023/02/17 09:57:40;;;;;;;1999.90;999.90;;;;;;;16.95;50.39;99054.22;5105276;28;20025;-87
2023/02/17 10:00:13;;;;;;;1999.90;999.90;;;;;;;16.05;51.12;99046.63;5110493;28;20020;-84
2023/02/17 10:02:47;;;;;;;1999.90;999.90;;;;;;;16.42;50.51;99053.09;5113995;28;20028;-84
2023/02/17 10:05:17;;;;;;;1999.90;999.90;;;;;;;16.68;50.82;99040.47;5096218;28;20116;-87
2023/02/17 10:07:54;;;;;;;1999.90;999.90;;;;;;;17.08;49.97;99047.88;5112980;28;20108;-90
2023/02/17 10:10:24;;;;;;;1999.90;999.90;;;;;;;17.40;48.95;99037.72;5112975;28;20039;-90
2023/02/17 10:12:55;;;;;;;1999.90;999.90;;;;;;;17.14;49.40;99043.03;5113511;28;20021;-89
2023/02/17 10:15:43;;;;;;;1999.90;999.90;;;;;;;16.23;50.90;99033.03;5108300;28;20465;-86
2023/02/17 10:18:20;;;;;;;1999.90;999.90;;;;;;;16.92;50.78;99029.97;5113273;28;20095;-89
2023/02/17 10:21:10;;;;;;;1999.90;999.90;;;;;;;18.03;47.84;99020.94;5115695;28;20500;-84
2023/02/17 10:23:36;;;;;;;1999.90;999.90;;;;;;;18.59;46.75;99023.81;5120908;27;20028;-85
2023/02/17 10:26:32;;;;;;;1999.90;999.90;;;;;;;18.56;46.42;99013.38;5135135;28;20031;-85
2023/02/17 10:29:06;;;;;;;1999.90;999.90;;;;;;;18.72;46.84;99022.06;5129045;28;20016;-85
2023/02/17 10:32:23;;;;;;;1999.90;999.90;;;;;;;19.36;44.67;99025.06;5115935;28;20040;-87
2023/02/17 10:35:04;;;;;;;1999.90;999.90;;;;;;;18.91;45.01;99028.13;5054034;28;20043;-84
2023/02/17 10:37:30;;;;;;;1999.90;999.90;;;;;;;18.10;47.08;99022.13;5115324;28;20120;-87
2023/02/17 10:39:57;;;;;;;1999.90;999.90;;;;;;;18.40;46.85;99019.63;5124473;28;20024;-84
2023/02/17 10:42:38;;;;;;;1999.90;999.90;;;;;;;18.60;46.26;99014.38;5119176;28;20027;-85
2023/02/17 10:45:25;;;;;;;1999.90;999.90;;;;;;;18.10;47.33;99005.50;5113395;28;20016;-85
2023/02/17 10:48:06;;;;;;;1999.90;999.90;;;;;;;18.54;46.83;99014.84;5103712;28;20043;-83
2023/02/17 10:50:33;;;;;;;1999.90;999.90;;;;;;;18.52;46.95;99019.84;5130128;28;20030;-93
2023/02/17 10:52:59;;;;;;;1999.90;999.90;;;;;;;19.57;45.08;98998.31;5115292;28;20084;-91
2023/02/17 10:55:36;;;;;;;1999.90;999.90;;;;;;;19.17;45.79;99000.44;5114795;28;20020;-84
2023/02/17 10:58:27;;;;;;;1999.90;999.90;;;;;;;19.77;44.50;99000.38;5110301;28;20020;-85
2023/02/17 11:00:55;;;;;;;1999.90;999.90;;;;;;;21.08;42.41;98987.19;5110584;28;20435;-85
2023/02/17 11:03:24;;;;;;;1999.90;999.90;;;;;;;20.62;43.20;98984.56;5106427;28;20020;-84
2023/02/17 11:05:56;;;;;;;1999.90;999.90;;;;;;;20.40;43.81;98971.75;5115797;28;20098;-81